createdAt,value
2023-08-29T00:00:31.681Z,3.87
2023-08-29T00:02:59.776Z,4.63
2023-08-29T00:05:29.128Z,5.53
2023-08-29T00:07:58.602Z,6.40
2023-08-29T00:10:26.797Z,7.70
2023-08-29T00:12:54.717Z,9.20
2023-08-29T00:15:22.538Z,10.07
2023-08-29T00:17:50.669Z,7.17
2023-08-29T00:20:18.546Z,6.40
2023-08-29T00:22:46.603Z,6.97
2023-08-29T00:25:16.090Z,5.03
2023-08-29T00:27:43.869Z,5.43
2023-08-29T00:30:12.236Z,6.37
2023-08-29T00:32:40.378Z,7.57
2023-08-29T00:35:08.272Z,6.20
2023-08-29T00:37:36.313Z,6.23
2023-08-29T00:40:05.095Z,9.97
2023-08-29T00:42:34.414Z,5.30
2023-08-29T00:45:02.354Z,6.40
2023-08-29T00:47:30.622Z,5.87
2023-08-29T00:49:58.480Z,8.30
2023-08-29T00:52:26.670Z,7.07
2023-08-29T00:54:54.744Z,7.07
2023-08-29T00:57:22.818Z,6.57
2023-08-29T00:59:52.617Z,6.23
2023-08-29T01:02:21.672Z,5.30
2023-08-29T01:04:49.387Z,5.90
2023-08-29T01:07:19.022Z,5.30
2023-08-29T01:09:49.343Z,4.70
2023-08-29T01:12:18.346Z,4.77
2023-08-29T01:14:52.372Z,5.30
2023-08-29T01:17:24.684Z,4.63
2023-08-29T01:19:53.801Z,5.33
2023-08-29T01:22:27.845Z,5.47
2023-08-29T01:25:00.323Z,4.80
2023-08-29T01:27:31.901Z,5.20
2023-08-29T01:30:01.840Z,5.43
2023-08-29T01:32:30.584Z,5.30
2023-08-29T01:34:59.463Z,5.00
2023-08-29T01:37:27.432Z,4.90
2023-08-29T01:39:55.175Z,5.07
2023-08-29T01:42:22.927Z,4.87
2023-08-29T01:44:52.581Z,4.30
2023-08-29T01:47:20.386Z,4.67
2023-08-29T01:49:49.976Z,4.40
2023-08-29T01:52:18.089Z,4.03
2023-08-29T01:54:47.626Z,3.97
2023-08-29T01:57:16.267Z,4.80
2023-08-29T01:59:46.000Z,3.97
2023-08-29T02:02:15.787Z,3.63
2023-08-29T02:04:43.826Z,3.87
2023-08-29T02:07:11.831Z,4.47
2023-08-29T02:09:39.627Z,3.80
2023-08-29T02:12:07.706Z,3.50
2023-08-29T02:14:35.807Z,3.67
2023-08-29T02:17:04.714Z,4.30
2023-08-29T02:19:33.881Z,3.77
2023-08-29T02:22:02.141Z,3.67
2023-08-29T02:24:31.505Z,3.80
2023-08-29T02:26:59.554Z,3.97
2023-08-29T02:29:27.525Z,3.40
2023-08-29T02:31:55.432Z,3.77
2023-08-29T02:34:23.187Z,3.57
2023-08-29T02:36:52.749Z,3.20
2023-08-29T02:39:20.673Z,3.50
2023-08-29T02:41:48.795Z,3.80
2023-08-29T02:44:17.026Z,3.40
2023-08-29T02:46:45.789Z,3.33
2023-08-29T02:49:13.800Z,3.83
2023-08-29T02:51:41.716Z,3.43
2023-08-29T02:54:10.912Z,3.40
2023-08-29T02:56:38.586Z,3.90
2023-08-29T02:59:06.866Z,3.40
2023-08-29T03:01:34.759Z,3.00
2023-08-29T03:04:04.061Z,3.30
2023-08-29T03:06:32.206Z,3.03
2023-08-29T03:08:59.922Z,3.37
2023-08-29T03:11:30.372Z,3.57
2023-08-29T03:14:00.177Z,3.33
2023-08-29T03:16:28.205Z,3.00
2023-08-29T03:18:56.498Z,2.97
2023-08-29T03:21:24.835Z,3.40
2023-08-29T03:23:52.683Z,3.57
2023-08-29T03:26:20.443Z,3.03
2023-08-29T03:28:50.520Z,3.33
2023-08-29T03:31:19.052Z,3.67
2023-08-29T03:33:47.021Z,3.10
2023-08-29T03:36:15.409Z,3.17
2023-08-29T03:38:45.063Z,3.53
2023-08-29T03:41:13.232Z,3.00
2023-08-29T03:43:41.057Z,2.90
2023-08-29T03:46:11.908Z,3.17
2023-08-29T03:48:41.705Z,3.03
2023-08-29T03:51:09.671Z,3.43
2023-08-29T03:53:38.448Z,3.37
2023-08-29T03:56:11.053Z,3.40
2023-08-29T03:58:39.194Z,3.17
2023-08-29T04:01:08.798Z,3.40
2023-08-29T04:03:39.576Z,2.90
2023-08-29T04:06:08.029Z,3.60
2023-08-29T04:08:35.769Z,3.47
2023-08-29T04:11:05.604Z,2.93
2023-08-29T04:13:34.435Z,3.50
2023-08-29T04:16:03.007Z,2.80
2023-08-29T04:18:31.655Z,2.90
2023-08-29T04:21:00.730Z,2.83
2023-08-29T04:23:29.137Z,3.00
2023-08-29T04:26:00.932Z,2.93
2023-08-29T04:28:28.818Z,3.23
2023-08-29T04:30:57.107Z,3.17
2023-08-29T04:33:26.694Z,3.00
2023-08-29T04:35:55.737Z,2.90
2023-08-29T04:38:24.911Z,3.10
2023-08-29T04:40:54.649Z,2.83
2023-08-29T04:43:22.590Z,3.50
2023-08-29T04:45:52.097Z,3.17
2023-08-29T04:48:20.202Z,3.10
2023-08-29T04:50:47.994Z,2.90
2023-08-29T04:53:17.512Z,2.60
2023-08-29T04:55:46.668Z,2.90
2023-08-29T04:58:14.864Z,3.50
2023-08-29T05:00:42.881Z,2.70
2023-08-29T05:03:10.859Z,3.17
2023-08-29T05:05:39.135Z,3.20
2023-08-29T05:08:10.261Z,3.00
2023-08-29T05:10:38.165Z,3.13
2023-08-29T05:13:07.483Z,3.73
2023-08-29T05:15:35.658Z,3.87
2023-08-29T05:18:03.692Z,3.13
2023-08-29T05:20:31.549Z,3.70
2023-08-29T05:22:59.562Z,3.60
2023-08-29T05:25:27.320Z,3.80
2023-08-29T05:27:55.083Z,3.93
2023-08-29T05:30:24.387Z,3.50
2023-08-29T05:32:52.245Z,3.70
2023-08-29T05:35:20.334Z,4.03
2023-08-29T05:37:48.426Z,4.40
2023-08-29T05:40:16.481Z,3.93
2023-08-29T05:42:44.197Z,5.00
2023-08-29T05:45:12.637Z,4.60
2023-08-29T05:47:41.719Z,5.80
2023-08-29T05:50:09.817Z,6.60
2023-08-29T05:52:37.897Z,6.87
2023-08-29T05:55:06.110Z,6.47
2023-08-29T05:57:33.874Z,5.50
2023-08-29T06:00:01.888Z,5.50
2023-08-29T06:02:29.705Z,6.17
2023-08-29T06:04:59.135Z,5.53
2023-08-29T06:07:27.383Z,7.40
2023-08-29T06:09:55.145Z,6.47
2023-08-29T06:12:23.204Z,6.90
2023-08-29T06:14:51.206Z,15.60
2023-08-29T06:17:19.630Z,9.70
2023-08-29T06:19:47.432Z,7.60
2023-08-29T06:22:16.821Z,7.53
2023-08-29T06:24:44.675Z,9.13
2023-08-29T06:27:12.713Z,9.80
2023-08-29T06:29:40.421Z,9.07
2023-08-29T06:32:08.250Z,8.77
2023-08-29T06:34:36.355Z,9.37
2023-08-29T06:37:05.170Z,8.67
2023-08-29T06:39:34.270Z,8.40
2023-08-29T06:42:02.175Z,8.60
2023-08-29T06:44:31.633Z,7.27
2023-08-29T06:46:59.544Z,7.37
2023-08-29T06:49:27.851Z,8.40
2023-08-29T06:51:56.095Z,16.03
2023-08-29T06:54:24.264Z,9.20
2023-08-29T06:56:53.643Z,9.27
2023-08-29T06:59:21.504Z,14.53
2023-08-29T07:01:51.461Z,9.00
2023-08-29T07:04:20.895Z,8.50
2023-08-29T07:06:48.670Z,10.63
2023-08-29T07:09:17.286Z,7.97
2023-08-29T07:11:45.046Z,7.83
2023-08-29T07:14:14.686Z,8.30
2023-08-29T07:16:47.949Z,10.30
2023-08-29T07:19:19.393Z,8.70
2023-08-29T07:21:47.913Z,10.13
2023-08-29T07:24:16.055Z,9.10
2023-08-29T07:26:43.764Z,10.10
2023-08-29T07:29:11.562Z,10.80
2023-08-29T07:31:40.693Z,10.60
2023-08-29T07:34:08.551Z,11.97
2023-08-29T07:36:36.353Z,10.77
2023-08-29T07:39:04.886Z,11.10
2023-08-29T07:41:32.732Z,11.67
2023-08-29T07:44:00.514Z,11.30
2023-08-29T07:46:28.282Z,12.33
2023-08-29T07:48:58.335Z,17.27
2023-08-29T07:51:26.497Z,14.30
2023-08-29T07:53:54.525Z,14.50
2023-08-29T07:56:22.795Z,11.73
2023-08-29T07:58:50.797Z,14.37
2023-08-29T08:01:18.994Z,13.33
2023-08-29T08:03:49.012Z,11.50
2023-08-29T08:06:18.530Z,16.20
2023-08-29T08:08:46.967Z,14.10
2023-08-29T08:11:15.222Z,12.80
2023-08-29T08:13:43.080Z,14.07
2023-08-29T08:16:11.058Z,14.67
2023-08-29T08:18:38.995Z,13.97
2023-08-29T08:21:06.714Z,13.90
2023-08-29T08:23:35.805Z,14.73
2023-08-29T08:26:05.452Z,13.67
2023-08-29T08:28:33.243Z,12.20
2023-08-29T08:31:01.053Z,12.17
2023-08-29T08:33:28.955Z,14.27
2023-08-29T08:35:57.714Z,13.80
2023-08-29T08:38:33.975Z,16.20
2023-08-29T08:41:01.971Z,14.67
2023-08-29T08:43:30.701Z,14.80
2023-08-29T08:45:59.747Z,10.83
2023-08-29T08:48:27.653Z,13.37
2023-08-29T08:50:56.291Z,13.20
2023-08-29T08:53:24.240Z,13.63
2023-08-29T08:55:53.349Z,13.37
2023-08-29T08:58:21.525Z,12.73
2023-08-29T09:00:50.085Z,12.87
2023-08-29T09:03:17.888Z,13.43
2023-08-29T09:05:45.843Z,12.17
2023-08-29T09:08:13.952Z,14.80
2023-08-29T09:10:41.844Z,14.27
2023-08-29T09:13:15.922Z,14.37
2023-08-29T09:15:43.914Z,12.53
2023-08-29T09:18:14.731Z,13.53
2023-08-29T09:20:44.281Z,11.60
2023-08-29T09:23:21.601Z,11.47
2023-08-29T09:25:54.138Z,16.90
2023-08-29T09:28:23.644Z,9.67
2023-08-29T09:30:51.543Z,8.00
2023-08-29T09:33:23.224Z,8.13
2023-08-29T09:35:51.289Z,6.77
2023-08-29T09:38:20.124Z,6.03
2023-08-29T09:40:50.413Z,4.77
2023-08-29T09:43:18.767Z,4.57
2023-08-29T09:45:52.331Z,4.00
2023-08-29T09:48:20.381Z,4.60
2023-08-29T09:50:48.540Z,4.57
2023-08-29T09:53:17.513Z,5.47
2023-08-29T09:55:46.028Z,4.07
2023-08-29T09:58:16.086Z,4.43
2023-08-29T10:00:45.691Z,4.27
2023-08-29T10:03:15.146Z,4.40
2023-08-29T10:05:45.340Z,16.10
2023-08-29T10:08:15.948Z,4.67
2023-08-29T10:10:44.381Z,5.23
2023-08-29T10:13:13.046Z,5.33
2023-08-29T10:15:41.870Z,4.90
2023-08-29T10:18:10.164Z,5.17
2023-08-29T10:20:44.632Z,4.63
2023-08-29T10:23:12.739Z,4.23
2023-08-29T10:25:41.160Z,4.50
2023-08-29T10:28:11.222Z,6.80
2023-08-29T10:30:40.482Z,4.17
2023-08-29T10:33:09.167Z,6.20
2023-08-29T10:35:39.496Z,4.20
2023-08-29T10:38:10.564Z,4.43
2023-08-29T10:40:41.533Z,5.17
2023-08-29T10:43:17.723Z,5.40
2023-08-29T10:48:51.014Z,4.70
2023-08-29T10:51:23.721Z,5.10
2023-08-29T10:53:52.485Z,5.37
2023-08-29T10:56:21.597Z,5.10
2023-08-29T10:58:49.900Z,3.87
2023-08-29T11:01:31.718Z,4.70
2023-08-29T11:04:00.454Z,5.13
2023-08-29T11:06:49.782Z,7.17
2023-08-29T11:09:18.331Z,5.87
2023-08-29T11:11:47.025Z,7.50
2023-08-29T11:14:15.042Z,5.93
2023-08-29T11:17:03.020Z,7.20
2023-08-29T11:19:30.941Z,6.83
2023-08-29T11:22:00.370Z,6.10
2023-08-29T11:24:29.124Z,7.73
2023-08-29T11:26:59.333Z,5.90
2023-08-29T11:29:36.637Z,6.40
2023-08-29T11:32:05.011Z,6.13
2023-08-29T11:34:37.957Z,8.03
2023-08-29T11:37:10.064Z,11.97
2023-08-29T11:39:39.551Z,10.33
2023-08-29T11:42:35.220Z,8.17
2023-08-29T11:45:45.601Z,7.30
2023-08-29T11:47:45.000Z,6.93
2023-08-29T11:50:13.218Z,7.17
2023-08-29T11:52:42.527Z,7.90
2023-08-29T11:55:12.214Z,7.37
2023-08-29T11:57:43.856Z,8.33
2023-08-29T12:00:14.128Z,7.80
2023-08-29T12:02:43.007Z,7.60
2023-08-29T12:05:11.670Z,8.70
2023-08-29T12:07:39.442Z,9.30
2023-08-29T12:10:09.938Z,7.73
2023-08-29T12:12:38.643Z,8.00
2023-08-29T12:15:07.777Z,7.17
2023-08-29T12:17:39.846Z,7.77
2023-08-29T12:20:26.843Z,6.70
2023-08-29T12:22:54.856Z,6.97
2023-08-29T12:25:26.090Z,7.83
2023-08-29T12:27:54.118Z,8.30
2023-08-29T12:30:22.405Z,7.37
2023-08-29T12:32:50.673Z,8.40
2023-08-29T12:35:19.020Z,8.70
2023-08-29T12:37:47.359Z,9.40
2023-08-29T12:40:15.808Z,9.30
2023-08-29T12:42:46.088Z,8.17
2023-08-29T12:45:14.882Z,9.30
2023-08-29T12:47:42.650Z,9.97
2023-08-29T12:50:11.687Z,9.43
2023-08-29T12:52:45.561Z,9.23
2023-08-29T12:55:13.580Z,8.47
2023-08-29T12:57:41.675Z,7.57
2023-08-29T13:00:11.679Z,8.23
2023-08-29T13:02:39.444Z,7.73
2023-08-29T13:05:07.705Z,8.17
2023-08-29T13:07:36.419Z,7.83
2023-08-29T13:10:06.273Z,8.73
2023-08-29T13:12:34.641Z,7.77
2023-08-29T13:15:06.789Z,7.43
2023-08-29T13:17:35.922Z,6.60
2023-08-29T13:20:04.077Z,7.40
2023-08-29T13:22:32.281Z,6.87
2023-08-29T13:25:00.419Z,7.40
2023-08-29T13:27:28.302Z,13.93
2023-08-29T13:29:56.224Z,9.80
2023-08-29T13:32:23.936Z,8.53
2023-08-29T13:34:53.623Z,9.00
2023-08-29T13:37:21.962Z,11.23
2023-08-29T13:39:55.610Z,11.07
2023-08-29T13:42:23.927Z,10.67
2023-08-29T13:44:52.166Z,9.53
2023-08-29T13:47:20.315Z,9.70
2023-08-29T13:49:48.252Z,6.70
2023-08-29T13:52:17.522Z,5.40
2023-08-29T13:54:45.894Z,5.00
2023-08-29T13:57:14.497Z,5.20
2023-08-29T13:59:42.193Z,4.80
2023-08-29T14:02:11.612Z,6.03
2023-08-29T14:04:39.776Z,6.10
2023-08-29T14:07:07.475Z,6.50
2023-08-29T14:09:36.494Z,6.30
2023-08-29T14:12:06.023Z,7.07
2023-08-29T14:14:33.777Z,7.93
2023-08-29T14:17:01.522Z,9.53
2023-08-29T14:19:29.918Z,9.90
2023-08-29T14:21:57.651Z,8.27
2023-08-29T14:24:25.748Z,9.53
2023-08-29T14:26:55.059Z,9.87
2023-08-29T14:29:22.916Z,10.60
2023-08-29T14:31:50.660Z,11.00
2023-08-29T14:34:18.527Z,11.30
2023-08-29T14:36:46.260Z,10.87
2023-08-29T14:39:14.605Z,12.63
2023-08-29T14:41:43.027Z,13.23
2023-08-29T14:44:12.272Z,12.83
2023-08-29T14:46:40.103Z,13.10
2023-08-29T14:49:08.518Z,14.57
2023-08-29T14:51:36.317Z,15.20
2023-08-29T14:54:04.665Z,16.17
2023-08-29T14:56:32.900Z,16.03
2023-08-29T14:59:01.500Z,16.70
2023-08-29T15:01:30.772Z,16.90
2023-08-29T15:03:58.976Z,17.30
2023-08-29T15:06:27.801Z,18.67
2023-08-29T15:08:55.589Z,19.13
2023-08-29T15:11:23.530Z,17.20
2023-08-29T15:13:51.544Z,17.77
2023-08-29T15:16:19.447Z,18.00
2023-08-29T15:18:49.181Z,20.27
2023-08-29T15:21:19.556Z,19.40
2023-08-29T15:23:48.062Z,18.20
2023-08-29T15:26:16.106Z,18.30
2023-08-29T15:28:44.880Z,21.67
2023-08-29T15:31:12.660Z,19.17
2023-08-29T15:33:40.994Z,18.03
2023-08-29T15:36:11.014Z,18.83
2023-08-29T15:38:40.642Z,19.73
2023-08-29T15:41:08.340Z,18.70
2023-08-29T15:43:36.218Z,17.83
2023-08-29T15:46:04.674Z,20.10
2023-08-29T15:48:32.716Z,18.17
2023-08-29T15:51:00.621Z,16.50
2023-08-29T15:53:31.959Z,16.47
2023-08-29T15:56:01.725Z,13.50
2023-08-29T15:58:29.694Z,12.83
2023-08-29T16:00:57.496Z,12.20
2023-08-29T16:03:25.293Z,11.80
2023-08-29T16:05:53.104Z,14.00
2023-08-29T16:08:21.594Z,14.93
2023-08-29T16:10:50.760Z,12.70
2023-08-29T16:13:18.732Z,10.83
2023-08-29T16:15:47.157Z,11.60
2023-08-29T16:18:15.009Z,11.50
2023-08-29T16:20:43.332Z,11.10
2023-08-29T16:23:12.235Z,12.60
2023-08-29T16:25:40.811Z,13.77
2023-08-29T16:28:10.053Z,9.00
2023-08-29T16:30:38.407Z,8.00
2023-08-29T16:33:08.123Z,10.27
2023-08-29T16:35:36.492Z,8.23
2023-08-29T16:38:05.990Z,6.10
2023-08-29T16:40:35.239Z,9.13
2023-08-29T16:43:03.148Z,6.97
2023-08-29T16:45:36.067Z,7.30
2023-08-29T16:48:05.338Z,7.17
2023-08-29T16:50:34.716Z,6.50
2023-08-29T16:53:03.787Z,5.80
2023-08-29T16:55:31.844Z,5.67
2023-08-29T16:58:00.502Z,12.60
2023-08-29T17:00:30.108Z,7.60
2023-08-29T17:03:00.294Z,7.37
2023-08-29T17:05:29.921Z,11.53
2023-08-29T17:07:58.364Z,6.70
2023-08-29T17:10:26.714Z,6.30
2023-08-29T17:12:54.894Z,6.43
2023-08-29T17:15:22.998Z,7.10
2023-08-29T17:17:50.866Z,6.47
2023-08-29T17:20:20.304Z,7.03
2023-08-29T17:22:48.090Z,6.70
2023-08-29T17:25:16.181Z,8.47
2023-08-29T17:27:44.669Z,10.97
2023-08-29T17:30:13.283Z,9.60
2023-08-29T17:32:43.369Z,9.50
2023-08-29T17:35:11.536Z,12.30
2023-08-29T17:37:42.066Z,11.73
2023-08-29T17:40:12.047Z,11.90
2023-08-29T17:42:40.383Z,12.50
2023-08-29T17:45:09.473Z,8.00
2023-08-29T17:47:37.882Z,9.60
2023-08-29T17:50:06.613Z,15.60
2023-08-29T17:52:34.782Z,13.53
2023-08-29T17:55:05.771Z,10.10
2023-08-29T17:57:33.765Z,9.23
2023-08-29T18:00:01.452Z,9.70
2023-08-29T18:02:29.889Z,9.60
2023-08-29T18:04:57.726Z,7.50
2023-08-29T18:07:25.645Z,8.37
2023-08-29T18:10:14.574Z,7.07
2023-08-29T18:12:42.739Z,6.77
2023-08-29T18:15:12.712Z,5.50
2023-08-29T18:17:40.823Z,6.00
2023-08-29T18:20:09.431Z,6.30
2023-08-29T18:22:37.784Z,6.37
2023-08-29T18:25:06.152Z,7.83
2023-08-29T18:27:35.544Z,5.90
2023-08-29T18:30:03.858Z,7.60
2023-08-29T18:32:34.310Z,7.90
2023-08-29T18:35:02.261Z,10.13
2023-08-29T18:37:30.361Z,7.03
2023-08-29T18:39:58.910Z,5.77
2023-08-29T18:42:26.743Z,8.50
2023-08-29T18:44:56.156Z,9.57
2023-08-29T18:47:24.791Z,5.40
2023-08-29T18:49:52.652Z,7.93
2023-08-29T18:52:20.519Z,5.07
2023-08-29T18:54:48.541Z,5.80
2023-08-29T18:57:16.497Z,7.73
2023-08-29T18:59:44.728Z,7.37
2023-08-29T19:02:14.278Z,5.87
2023-08-29T19:04:44.006Z,5.50
2023-08-29T19:07:12.383Z,6.20
2023-08-29T19:09:42.909Z,5.43
2023-08-29T19:12:11.214Z,5.30
2023-08-29T19:14:38.948Z,5.77
2023-08-29T19:17:08.798Z,6.03
2023-08-29T19:19:38.206Z,5.70
2023-08-29T19:22:06.911Z,8.33
2023-08-29T19:24:35.762Z,10.33
2023-08-29T19:27:06.685Z,9.70
2023-08-29T19:29:41.482Z,12.43
2023-08-29T19:32:09.294Z,9.70
2023-08-29T19:34:39.702Z,12.30
2023-08-29T19:37:07.816Z,9.10
2023-08-29T19:39:36.152Z,9.07
2023-08-29T19:42:04.456Z,7.70
2023-08-29T19:44:33.536Z,7.47
2023-08-29T19:47:04.790Z,11.43
2023-08-29T19:49:39.973Z,9.00
2023-08-29T19:52:08.111Z,7.73
2023-08-29T19:54:35.946Z,9.07
2023-08-29T19:57:05.070Z,7.37
2023-08-29T19:59:35.356Z,6.97
2023-08-29T20:02:03.533Z,7.83
2023-08-29T20:04:31.598Z,7.70
2023-08-29T20:07:00.938Z,5.00
2023-08-29T20:09:28.835Z,5.40
2023-08-29T20:11:57.253Z,6.53
2023-08-29T20:14:25.131Z,5.67
2023-08-29T20:16:53.736Z,5.50
2023-08-29T20:19:24.243Z,5.77
2023-08-29T20:21:52.248Z,5.30
2023-08-29T20:24:22.114Z,5.60
2023-08-29T20:26:51.489Z,5.50
2023-08-29T20:29:19.292Z,5.90
2023-08-29T20:31:47.649Z,5.07
2023-08-29T20:34:16.922Z,5.17
2023-08-29T20:36:48.754Z,6.13
2023-08-29T20:39:17.565Z,7.10
2023-08-29T20:41:46.689Z,8.93
2023-08-29T20:44:14.806Z,14.77
2023-08-29T20:46:42.817Z,14.07
2023-08-29T20:49:10.676Z,16.40
2023-08-29T20:51:39.246Z,28.23
2023-08-29T20:54:07.951Z,48.93
2023-08-29T20:56:35.897Z,42.70
2023-08-29T20:59:05.120Z,90.97
2023-08-29T21:01:33.342Z,97.47
2023-08-29T21:04:01.126Z,62.70
2023-08-29T21:06:29.957Z,77.07
2023-08-29T21:08:58.079Z,131.67
2023-08-29T21:11:25.825Z,147.10
2023-08-29T21:13:53.633Z,113.13
2023-08-29T21:16:23.235Z,137.77
2023-08-29T21:18:50.988Z,189.07
2023-08-29T21:21:21.733Z,96.13
2023-08-29T21:23:50.550Z,108.93
2023-08-29T21:26:18.318Z,49.20
2023-08-29T21:28:46.341Z,73.73
2023-08-29T21:31:16.323Z,68.77
2023-08-29T21:33:45.654Z,82.57
2023-08-29T21:36:13.629Z,57.10
2023-08-29T21:38:41.685Z,18.43
2023-08-29T21:41:09.411Z,28.17
2023-08-29T21:43:40.116Z,20.37
2023-08-29T21:46:08.638Z,20.73
2023-08-29T21:48:36.466Z,17.50
2023-08-29T21:51:05.603Z,12.60
2023-08-29T21:53:33.419Z,9.67
2023-08-29T21:56:01.197Z,10.33
2023-08-29T21:58:29.021Z,8.87
2023-08-29T22:00:56.942Z,6.90
2023-08-29T22:03:25.572Z,7.23
2023-08-29T22:05:54.016Z,7.83
2023-08-29T22:08:25.102Z,7.27
2023-08-29T22:10:52.984Z,7.40
2023-08-29T22:13:20.962Z,4.63
2023-08-29T22:15:50.693Z,7.10
2023-08-29T22:18:18.862Z,5.40
2023-08-29T22:20:48.164Z,6.97
2023-08-29T22:23:16.239Z,6.47
2023-08-29T22:25:45.499Z,5.60
2023-08-29T22:28:13.285Z,5.77
2023-08-29T22:30:41.377Z,5.43
2023-08-29T22:33:09.742Z,5.40
2023-08-29T22:35:37.789Z,7.10
2023-08-29T22:38:05.712Z,6.97
2023-08-29T22:40:33.580Z,5.87
2023-08-29T22:43:02.639Z,4.57
2023-08-29T22:45:30.859Z,3.97
2023-08-29T22:47:58.684Z,5.10
2023-08-29T22:50:26.520Z,4.07
2023-08-29T22:52:54.449Z,4.10
2023-08-29T22:55:26.022Z,4.37
2023-08-29T22:57:56.417Z,4.60
2023-08-29T23:00:28.400Z,4.67
2023-08-29T23:02:56.490Z,5.17
2023-08-29T23:05:24.864Z,4.00
2023-08-29T23:07:52.946Z,5.77
2023-08-29T23:10:20.841Z,4.53
2023-08-29T23:12:48.961Z,4.00
2023-08-29T23:15:17.246Z,8.60
2023-08-29T23:17:47.254Z,4.50
2023-08-29T23:20:15.378Z,10.97
2023-08-29T23:22:43.085Z,4.60
2023-08-29T23:25:13.366Z,6.10
2023-08-29T23:27:41.759Z,5.10
2023-08-29T23:30:11.581Z,5.00
2023-08-29T23:32:40.791Z,4.00
2023-08-29T23:35:13.131Z,5.20
2023-08-29T23:38:03.728Z,4.40
2023-08-29T23:40:31.908Z,8.50
2023-08-29T23:42:59.689Z,4.70
2023-08-29T23:45:29.478Z,5.13
2023-08-29T23:47:56.682Z,5.57
2023-08-29T23:50:26.354Z,5.80
2023-08-29T23:52:54.479Z,5.83
2023-08-29T23:55:22.159Z,6.47
2023-08-29T23:57:49.183Z,6.20
